createdAt,value
2023-05-02T00:00:03.973Z,558.00
2023-05-02T00:01:04.023Z,553.00
2023-05-02T00:02:04.092Z,544.00
2023-05-02T00:03:04.195Z,552.00
2023-05-02T00:04:04.261Z,554.00
2023-05-02T00:05:04.217Z,555.00
2023-05-02T00:06:04.316Z,553.00
2023-05-02T00:07:04.322Z,553.00
2023-05-02T00:08:04.365Z,556.00
2023-05-02T00:09:04.473Z,555.00
2023-05-02T00:10:04.483Z,552.00
2023-05-02T00:11:04.545Z,557.00
2023-05-02T00:12:04.625Z,553.00
2023-05-02T00:13:04.653Z,549.00
2023-05-02T00:14:04.712Z,554.00
2023-05-02T00:15:04.774Z,547.00
2023-05-02T00:16:04.845Z,549.00
2023-05-02T00:17:04.887Z,553.00
2023-05-02T00:18:04.955Z,555.00
2023-05-02T00:19:04.968Z,554.00
2023-05-02T00:20:05.029Z,552.00
2023-05-02T00:21:05.110Z,555.00
2023-05-02T00:22:05.118Z,551.00
2023-05-02T00:23:05.181Z,557.00
2023-05-02T00:24:05.248Z,553.00
2023-05-02T00:25:05.287Z,556.00
2023-05-02T00:26:05.318Z,552.00
2023-05-02T00:27:05.372Z,555.00
2023-05-02T00:28:05.463Z,555.00
2023-05-02T00:29:05.483Z,554.00
2023-05-02T00:30:05.523Z,552.00
2023-05-02T00:31:05.606Z,554.00
2023-05-02T00:32:05.696Z,550.00
2023-05-02T00:33:05.721Z,550.00
2023-05-02T00:34:05.759Z,551.00
2023-05-02T00:35:05.778Z,553.00
2023-05-02T00:36:05.820Z,552.00
2023-05-02T00:37:05.874Z,552.00
2023-05-02T00:38:05.939Z,552.00
2023-05-02T00:39:06.019Z,552.00
2023-05-02T00:40:06.075Z,555.00
2023-05-02T00:41:06.118Z,551.00
2023-05-02T00:42:06.163Z,552.00
2023-05-02T00:43:06.209Z,550.00
2023-05-02T00:44:06.305Z,558.00
2023-05-02T00:45:06.688Z,549.00
2023-05-02T00:46:06.411Z,552.00
2023-05-02T00:47:06.430Z,553.00
2023-05-02T00:48:06.541Z,556.00
2023-05-02T00:49:06.566Z,552.00
2023-05-02T00:50:06.608Z,555.00
2023-05-02T00:51:06.670Z,553.00
2023-05-02T00:52:06.738Z,554.00
2023-05-02T00:53:06.804Z,551.00
2023-05-02T00:54:06.873Z,554.00
2023-05-02T00:55:06.917Z,550.00
2023-05-02T00:56:06.981Z,552.00
2023-05-02T00:57:07.040Z,549.00
2023-05-02T00:58:07.093Z,554.00
2023-05-02T00:59:07.172Z,554.00
2023-05-02T01:00:07.201Z,551.00
2023-05-02T01:01:07.332Z,549.00
2023-05-02T01:02:07.394Z,550.00
2023-05-02T01:03:07.421Z,547.00
2023-05-02T01:04:07.504Z,553.00
2023-05-02T01:05:07.507Z,551.00
2023-05-02T01:06:07.643Z,552.00
2023-05-02T01:07:07.630Z,547.00
2023-05-02T01:08:07.691Z,550.00
2023-05-02T01:09:07.763Z,553.00
2023-05-02T01:10:07.792Z,548.00
2023-05-02T01:11:07.856Z,550.00
2023-05-02T01:12:07.926Z,549.00
2023-05-02T01:13:07.984Z,555.00
2023-05-02T01:14:08.049Z,551.00
2023-05-02T01:15:08.120Z,548.00
2023-05-02T01:16:08.272Z,552.00
2023-05-02T01:17:08.238Z,551.00
2023-05-02T01:18:08.345Z,550.00
2023-05-02T01:19:08.362Z,548.00
2023-05-02T01:20:08.405Z,550.00
2023-05-02T01:21:08.473Z,550.00
2023-05-02T01:22:08.573Z,549.00
2023-05-02T01:23:08.589Z,549.00
2023-05-02T01:24:08.663Z,544.00
2023-05-02T01:25:08.732Z,551.00
2023-05-02T01:26:08.780Z,550.00
2023-05-02T01:27:08.855Z,547.00
2023-05-02T01:28:08.917Z,544.00
2023-05-02T01:29:08.974Z,548.00
2023-05-02T01:30:09.054Z,551.00
2023-05-02T01:31:09.181Z,547.00
2023-05-02T01:32:09.195Z,548.00
2023-05-02T01:33:09.241Z,547.00
2023-05-02T01:34:09.278Z,546.00
2023-05-02T01:35:09.323Z,548.00
2023-05-02T01:36:09.391Z,548.00
2023-05-02T01:37:09.467Z,550.00
2023-05-02T01:38:09.514Z,546.00
2023-05-02T01:39:09.845Z,547.00
2023-05-02T01:40:09.657Z,547.00
2023-05-02T01:41:09.678Z,546.00
2023-05-02T01:42:09.762Z,548.00
2023-05-02T01:43:09.832Z,548.00
2023-05-02T01:44:09.905Z,545.00
2023-05-02T01:45:09.951Z,547.00
2023-05-02T01:46:10.014Z,550.00
2023-05-02T01:47:10.153Z,545.00
2023-05-02T01:48:10.166Z,548.00
2023-05-02T01:49:10.203Z,547.00
2023-05-02T01:50:10.319Z,548.00
2023-05-02T01:51:10.307Z,547.00
2023-05-02T01:52:10.372Z,545.00
2023-05-02T01:53:10.444Z,547.00
2023-05-02T01:54:10.503Z,550.00
2023-05-02T01:55:10.565Z,546.00
2023-05-02T01:56:10.633Z,547.00
2023-05-02T01:57:10.660Z,548.00
2023-05-02T01:58:10.739Z,545.00
2023-05-02T01:59:10.816Z,546.00
2023-05-02T02:00:10.838Z,548.00
2023-05-02T02:01:10.985Z,549.00
2023-05-02T02:02:10.986Z,551.00
2023-05-02T02:03:11.095Z,549.00
2023-05-02T02:04:11.168Z,547.00
2023-05-02T02:05:11.154Z,546.00
2023-05-02T02:06:11.260Z,547.00
2023-05-02T02:07:11.268Z,549.00
2023-05-02T02:08:11.374Z,544.00
2023-05-02T02:09:11.430Z,544.00
2023-05-02T02:10:11.457Z,546.00
2023-05-02T02:11:11.574Z,544.00
2023-05-02T02:12:11.579Z,544.00
2023-05-02T02:13:11.628Z,547.00
2023-05-02T02:14:11.720Z,546.00
2023-05-02T02:15:11.792Z,544.00
2023-05-02T02:16:11.908Z,546.00
2023-05-02T02:17:11.873Z,545.00
2023-05-02T02:18:12.050Z,545.00
2023-05-02T02:19:12.019Z,544.00
2023-05-02T02:20:12.066Z,548.00
2023-05-02T02:21:12.135Z,545.00
2023-05-02T02:22:12.167Z,547.00
2023-05-02T02:23:12.234Z,543.00
2023-05-02T02:24:12.322Z,544.00
2023-05-02T02:25:12.359Z,544.00
2023-05-02T02:26:12.426Z,548.00
2023-05-02T02:27:12.480Z,541.00
2023-05-02T02:28:12.523Z,546.00
2023-05-02T02:29:12.591Z,541.00
2023-05-02T02:30:12.639Z,540.00
2023-05-02T02:31:12.721Z,545.00
2023-05-02T02:32:12.760Z,543.00
2023-05-02T02:33:12.886Z,543.00
2023-05-02T02:34:12.869Z,544.00
2023-05-02T02:35:12.925Z,545.00
2023-05-02T02:36:13.004Z,544.00
2023-05-02T02:37:13.033Z,545.00
2023-05-02T02:38:13.086Z,544.00
2023-05-02T02:39:13.391Z,541.00
2023-05-02T02:40:13.205Z,543.00
2023-05-02T02:41:13.272Z,545.00
2023-05-02T02:42:13.330Z,543.00
2023-05-02T02:43:13.390Z,544.00
2023-05-02T02:44:13.766Z,547.00
2023-05-02T02:45:13.514Z,547.00
2023-05-02T02:46:13.585Z,544.00
2023-05-02T02:47:13.628Z,543.00
2023-05-02T02:48:13.702Z,544.00
2023-05-02T02:49:13.767Z,541.00
2023-05-02T02:50:13.820Z,541.00
2023-05-02T02:51:13.863Z,537.00
2023-05-02T02:52:13.910Z,543.00
2023-05-02T02:53:13.974Z,544.00
2023-05-02T02:54:25.818Z,543.00
2023-05-02T02:55:15.035Z,543.00
2023-05-02T02:56:14.046Z,544.00
2023-05-02T02:57:14.011Z,544.00
2023-05-02T02:58:14.006Z,542.00
2023-05-02T02:59:14.003Z,544.00
2023-05-02T03:00:13.993Z,543.00
2023-05-02T03:01:13.994Z,543.00
2023-05-02T03:02:13.990Z,540.00
2023-05-02T03:03:14.097Z,542.00
2023-05-02T03:04:14.290Z,539.00
2023-05-02T03:05:14.159Z,541.00
2023-05-02T03:06:14.256Z,539.00
2023-05-02T03:07:14.296Z,540.00
2023-05-02T03:08:14.326Z,541.00
2023-05-02T03:09:15.946Z,539.00
2023-05-02T03:10:14.460Z,537.00
2023-05-02T03:11:14.510Z,539.00
2023-05-02T03:12:14.564Z,540.00
2023-05-02T03:13:14.620Z,538.00
2023-05-02T03:14:14.730Z,540.00
2023-05-02T03:15:14.733Z,542.00
2023-05-02T03:16:14.821Z,542.00
2023-05-02T03:17:14.871Z,541.00
2023-05-02T03:18:14.976Z,540.00
2023-05-02T03:19:15.003Z,540.00
2023-05-02T03:20:15.045Z,541.00
2023-05-02T03:21:15.115Z,538.00
2023-05-02T03:22:15.176Z,540.00
2023-05-02T03:23:15.224Z,541.00
2023-05-02T03:24:16.188Z,531.00
2023-05-02T03:25:15.373Z,542.00
2023-05-02T03:26:15.438Z,539.00
2023-05-02T03:27:15.534Z,541.00
2023-05-02T03:28:15.571Z,540.00
2023-05-02T03:29:15.622Z,536.00
2023-05-02T03:30:15.684Z,540.00
2023-05-02T03:31:15.771Z,536.00
2023-05-02T03:32:15.817Z,536.00
2023-05-02T03:33:15.926Z,541.00
2023-05-02T03:34:15.932Z,536.00
2023-05-02T03:35:15.968Z,541.00
2023-05-02T03:36:16.023Z,536.00
2023-05-02T03:37:16.107Z,539.00
2023-05-02T03:38:16.153Z,539.00
2023-05-02T03:39:16.270Z,539.00
2023-05-02T03:40:16.306Z,540.00
2023-05-02T03:41:16.460Z,536.00
2023-05-02T03:42:16.411Z,537.00
2023-05-02T03:43:16.486Z,534.00
2023-05-02T03:44:16.533Z,536.00
2023-05-02T03:45:16.594Z,539.00
2023-05-02T03:46:16.711Z,536.00
2023-05-02T03:47:16.723Z,536.00
2023-05-02T03:48:16.792Z,537.00
2023-05-02T03:49:16.868Z,536.00
2023-05-02T03:50:16.903Z,537.00
2023-05-02T03:51:16.951Z,540.00
2023-05-02T03:52:17.037Z,536.00
2023-05-02T03:53:17.086Z,537.00
2023-05-02T03:54:17.146Z,536.00
2023-05-02T03:55:17.222Z,535.00
2023-05-02T03:56:17.288Z,538.00
2023-05-02T03:57:17.353Z,541.00
2023-05-02T03:58:17.417Z,532.00
2023-05-02T03:59:17.470Z,532.00
2023-05-02T04:00:17.533Z,538.00
2023-05-02T04:01:17.572Z,538.00
2023-05-02T04:02:17.681Z,537.00
2023-05-02T04:03:17.779Z,534.00
2023-05-02T04:04:17.789Z,537.00
2023-05-02T04:05:17.800Z,534.00
2023-05-02T04:06:17.905Z,539.00
2023-05-02T04:07:17.916Z,535.00
2023-05-02T04:08:17.986Z,535.00
2023-05-02T04:09:18.055Z,537.00
2023-05-02T04:10:18.124Z,533.00
2023-05-02T04:11:18.162Z,535.00
2023-05-02T04:12:18.226Z,535.00
2023-05-02T04:13:18.286Z,536.00
2023-05-02T04:14:18.379Z,535.00
2023-05-02T04:15:18.408Z,533.00
2023-05-02T04:16:18.530Z,536.00
2023-05-02T04:17:18.731Z,532.00
2023-05-02T04:18:18.602Z,536.00
2023-05-02T04:19:18.657Z,530.00
2023-05-02T04:20:18.748Z,534.00
2023-05-02T04:21:18.769Z,530.00
2023-05-02T04:22:18.829Z,529.00
2023-05-02T04:23:18.898Z,535.00
2023-05-02T04:24:19.000Z,537.00
2023-05-02T04:25:19.020Z,535.00
2023-05-02T04:26:19.075Z,536.00
2023-05-02T04:27:19.142Z,539.00
2023-05-02T04:28:19.239Z,533.00
2023-05-02T04:29:19.281Z,531.00
2023-05-02T04:30:19.337Z,533.00
2023-05-02T04:31:19.436Z,533.00
2023-05-02T04:32:19.462Z,534.00
2023-05-02T04:33:19.528Z,533.00
2023-05-02T04:34:19.598Z,533.00
2023-05-02T04:35:19.628Z,531.00
2023-05-02T04:36:19.695Z,534.00
2023-05-02T04:37:21.059Z,531.00
2023-05-02T04:38:19.817Z,533.00
2023-05-02T04:39:19.875Z,532.00
2023-05-02T04:40:19.937Z,535.00
2023-05-02T04:41:20.002Z,530.00
2023-05-02T04:42:20.050Z,533.00
2023-05-02T04:43:20.793Z,530.00
2023-05-02T04:44:20.186Z,530.00
2023-05-02T04:45:20.198Z,534.00
2023-05-02T04:46:20.293Z,533.00
2023-05-02T04:47:20.462Z,536.00
2023-05-02T04:48:20.389Z,530.00
2023-05-02T04:49:20.464Z,535.00
2023-05-02T04:50:20.505Z,531.00
2023-05-02T04:51:20.553Z,529.00
2023-05-02T04:52:20.588Z,529.00
2023-05-02T04:53:20.660Z,526.00
2023-05-02T04:54:20.737Z,529.00
2023-05-02T04:55:20.813Z,528.00
2023-05-02T04:56:20.871Z,530.00
2023-05-02T04:57:23.097Z,529.00
2023-05-02T04:58:21.003Z,531.00
2023-05-02T04:59:21.036Z,524.00
2023-05-02T05:00:21.101Z,527.00
2023-05-02T05:01:21.170Z,524.00
2023-05-02T05:02:21.293Z,522.00
2023-05-02T05:03:21.327Z,527.00
2023-05-02T05:04:21.733Z,524.00
2023-05-02T05:05:21.453Z,531.00
2023-05-02T05:06:21.509Z,528.00
2023-05-02T05:07:21.554Z,527.00
2023-05-02T05:08:21.609Z,524.00
2023-05-02T05:09:21.614Z,527.00
2023-05-02T05:10:21.681Z,525.00
2023-05-02T05:11:21.730Z,524.00
2023-05-02T05:12:21.793Z,524.00
2023-05-02T05:13:21.825Z,526.00
2023-05-02T05:14:21.886Z,524.00
2023-05-02T05:15:21.925Z,525.00
2023-05-02T05:16:22.004Z,525.00
2023-05-02T05:17:22.211Z,524.00
2023-05-02T05:18:22.094Z,528.00
2023-05-02T05:19:22.102Z,521.00
2023-05-02T05:20:22.128Z,524.00
2023-05-02T05:21:22.202Z,500.00
2023-05-02T05:22:22.239Z,500.00
2023-05-02T05:23:22.285Z,500.00
2023-05-02T05:24:22.254Z,500.00
2023-05-02T05:25:22.235Z,502.00
2023-05-02T05:26:22.248Z,500.00
2023-05-02T05:27:22.470Z,502.00
2023-05-02T05:28:22.236Z,500.00
2023-05-02T05:29:22.450Z,506.00
2023-05-02T05:30:22.300Z,504.00
2023-05-02T05:31:22.459Z,500.00
2023-05-02T05:32:22.293Z,500.00
2023-05-02T05:33:22.408Z,500.00
2023-05-02T05:34:22.644Z,509.00
2023-05-02T05:35:22.285Z,518.00
2023-05-02T05:36:23.693Z,523.00
2023-05-02T05:37:22.977Z,535.00
2023-05-02T05:38:22.264Z,559.00
2023-05-02T05:39:22.277Z,603.00
2023-05-02T05:40:22.308Z,631.00
2023-05-02T05:41:22.359Z,624.00
2023-05-02T05:42:22.251Z,637.00
2023-05-02T05:43:22.240Z,645.00
2023-05-02T05:44:22.324Z,660.00
2023-05-02T05:45:22.260Z,648.00
2023-05-02T05:46:22.303Z,655.00
2023-05-02T05:47:22.556Z,649.00
2023-05-02T05:48:22.416Z,652.00
2023-05-02T05:49:22.974Z,662.00
2023-05-02T05:50:22.534Z,660.00
2023-05-02T05:51:22.580Z,668.00
2023-05-02T05:52:22.649Z,685.00
2023-05-02T05:53:22.719Z,675.00
2023-05-02T05:54:22.972Z,663.00
2023-05-02T05:55:22.837Z,668.00
2023-05-02T05:56:22.916Z,675.00
2023-05-02T05:57:23.468Z,689.00
2023-05-02T05:58:23.014Z,685.00
2023-05-02T05:59:23.075Z,692.00
2023-05-02T06:00:23.202Z,698.00
2023-05-02T06:01:23.253Z,729.00
2023-05-02T06:02:23.421Z,728.00
2023-05-02T06:03:23.419Z,721.00
2023-05-02T06:04:23.449Z,708.00
2023-05-02T06:05:23.457Z,709.00
2023-05-02T06:06:23.565Z,693.00
2023-05-02T06:07:23.585Z,712.00
2023-05-02T06:08:23.681Z,756.00
2023-05-02T06:09:23.714Z,737.00
2023-05-02T06:10:23.778Z,742.00
2023-05-02T06:11:23.823Z,745.00
2023-05-02T06:12:23.880Z,771.00
2023-05-02T06:13:23.943Z,775.00
2023-05-02T06:14:24.030Z,800.00
2023-05-02T06:15:24.099Z,790.00
2023-05-02T06:16:24.135Z,807.00
2023-05-02T06:17:24.240Z,808.00
2023-05-02T06:18:24.237Z,811.00
2023-05-02T06:19:24.357Z,822.00
2023-05-02T06:20:24.350Z,780.00
2023-05-02T06:21:24.416Z,827.00
2023-05-02T06:22:24.557Z,835.00
2023-05-02T06:23:25.482Z,844.00
2023-05-02T06:24:24.634Z,870.00
2023-05-02T06:25:24.626Z,855.00
2023-05-02T06:26:24.717Z,878.00
2023-05-02T06:27:24.724Z,867.00
2023-05-02T06:28:24.812Z,874.00
2023-05-02T06:29:24.864Z,878.00
2023-05-02T06:30:24.890Z,860.00
2023-05-02T06:31:25.028Z,869.00
2023-05-02T06:32:25.043Z,877.00
2023-05-02T06:33:25.038Z,894.00
2023-05-02T06:34:25.082Z,882.00
2023-05-02T06:35:25.176Z,924.00
2023-05-02T06:36:25.158Z,1104.00
2023-05-02T06:37:25.469Z,1165.00
2023-05-02T06:38:25.321Z,1118.00
2023-05-02T06:39:25.300Z,1132.00
2023-05-02T06:40:25.495Z,1058.00
2023-05-02T06:41:25.353Z,1068.00
2023-05-02T06:42:25.398Z,991.00
2023-05-02T06:43:25.464Z,991.00
2023-05-02T06:44:25.477Z,938.00
2023-05-02T06:45:25.536Z,923.00
2023-05-02T06:46:25.592Z,928.00
2023-05-02T06:47:25.596Z,913.00
2023-05-02T06:48:25.612Z,909.00
2023-05-02T06:49:25.692Z,910.00
2023-05-02T06:50:25.750Z,947.00
2023-05-02T06:51:25.715Z,976.00
2023-05-02T06:52:25.785Z,979.00
2023-05-02T06:53:25.808Z,995.00
2023-05-02T06:54:25.819Z,972.00
2023-05-02T06:55:25.843Z,1025.00
2023-05-02T06:56:25.849Z,1055.00
2023-05-02T06:57:25.905Z,1132.00
2023-05-02T06:58:25.956Z,1120.00
2023-05-02T06:59:26.036Z,1162.00
2023-05-02T07:00:25.937Z,1154.00
2023-05-02T07:01:26.022Z,1163.00
2023-05-02T07:02:25.953Z,1180.00
2023-05-02T07:03:25.969Z,1223.00
2023-05-02T07:04:26.515Z,1223.00
2023-05-02T07:05:25.962Z,1224.00
2023-05-02T07:06:26.149Z,1261.00
2023-05-02T07:07:26.047Z,1257.00
2023-05-02T07:08:26.020Z,1249.00
2023-05-02T07:09:25.958Z,1265.00
2023-05-02T07:10:25.987Z,1272.00
2023-05-02T07:11:25.950Z,1286.00
2023-05-02T07:12:26.016Z,1303.00
2023-05-02T07:13:26.044Z,1304.00
2023-05-02T07:14:26.006Z,1328.00
2023-05-02T07:15:26.098Z,1370.00
2023-05-02T07:16:26.093Z,1322.00
2023-05-02T07:17:26.085Z,1350.00
2023-05-02T07:18:26.076Z,1342.00
2023-05-02T07:19:26.088Z,1366.00
2023-05-02T07:20:26.138Z,1391.00
2023-05-02T07:21:26.070Z,1374.00
2023-05-02T07:22:26.114Z,1408.00
2023-05-02T07:23:26.195Z,1442.00
2023-05-02T07:24:26.144Z,1481.00
2023-05-02T07:25:26.201Z,1509.00
2023-05-02T07:26:26.179Z,1471.00
2023-05-02T07:27:26.217Z,1472.00
2023-05-02T07:28:26.215Z,1490.00
2023-05-02T07:29:26.216Z,1478.00
2023-05-02T07:30:26.247Z,1501.00
2023-05-02T07:31:26.311Z,1529.00
2023-05-02T07:32:26.579Z,1515.00
2023-05-02T07:33:26.385Z,1542.00
2023-05-02T07:34:26.355Z,1528.00
2023-05-02T07:35:26.526Z,1389.00
2023-05-02T07:36:26.393Z,1382.00
2023-05-02T07:37:26.391Z,1206.00
2023-05-02T07:38:26.423Z,1124.00
2023-05-02T07:39:26.373Z,1034.00
2023-05-02T07:40:26.496Z,1126.00
2023-05-02T07:41:26.353Z,1242.00
2023-05-02T07:42:26.373Z,1314.00
2023-05-02T07:43:26.464Z,1333.00
2023-05-02T07:44:26.372Z,1388.00
2023-05-02T07:45:26.398Z,1402.00
2023-05-02T07:46:26.438Z,1417.00
2023-05-02T07:47:26.451Z,1436.00
2023-05-02T07:48:27.958Z,1448.00
2023-05-02T07:49:26.372Z,1479.00
2023-05-02T07:50:26.436Z,1480.00
2023-05-02T07:51:26.471Z,1444.00
2023-05-02T07:52:26.459Z,1485.00
2023-05-02T07:53:26.510Z,1517.00
2023-05-02T07:54:26.566Z,1539.00
2023-05-02T07:55:27.037Z,1556.00
2023-05-02T07:56:26.696Z,1573.00
2023-05-02T07:57:27.526Z,1588.00
2023-05-02T07:58:26.876Z,1605.00
2023-05-02T07:59:26.850Z,1619.00
2023-05-02T08:00:26.920Z,1640.00
2023-05-02T08:01:26.979Z,1640.00
2023-05-02T08:02:27.060Z,1637.00
2023-05-02T08:03:27.233Z,1644.00
2023-05-02T08:04:27.225Z,1683.00
2023-05-02T08:05:27.513Z,1704.00
2023-05-02T08:06:27.279Z,1713.00
2023-05-02T08:07:27.260Z,1744.00
2023-05-02T08:08:27.484Z,1740.00
2023-05-02T08:09:27.533Z,1762.00
2023-05-02T08:10:27.516Z,1771.00
2023-05-02T08:11:27.521Z,1779.00
2023-05-02T08:12:27.467Z,1776.00
2023-05-02T08:13:27.581Z,1784.00
2023-05-02T08:14:27.575Z,1794.00
2023-05-02T08:15:28.029Z,1797.00
2023-05-02T08:16:28.598Z,1809.00
2023-05-02T08:17:27.758Z,1837.00
2023-05-02T08:18:27.697Z,1824.00
2023-05-02T08:19:27.777Z,1843.00
2023-05-02T08:20:28.055Z,1865.00
2023-05-02T08:21:27.795Z,1877.00
2023-05-02T08:22:27.818Z,1863.00
2023-05-02T08:23:27.950Z,1879.00
2023-05-02T08:24:27.914Z,1884.00
2023-05-02T08:25:27.909Z,1897.00
2023-05-02T08:26:27.982Z,1795.00
2023-05-02T08:27:28.042Z,1775.00
2023-05-02T08:28:28.552Z,1771.00
2023-05-02T08:29:28.160Z,1776.00
2023-05-02T08:30:28.125Z,1689.00
2023-05-02T08:31:28.196Z,1625.00
2023-05-02T08:32:29.080Z,1569.00
2023-05-02T08:33:28.302Z,1516.00
2023-05-02T08:34:28.350Z,1456.00
2023-05-02T08:35:28.378Z,1397.00
2023-05-02T08:36:28.451Z,1342.00
2023-05-02T08:37:28.435Z,1322.00
2023-05-02T08:38:28.538Z,1327.00
2023-05-02T08:39:28.460Z,1347.00
2023-05-02T08:40:38.232Z,1225.00
2023-05-02T08:41:29.466Z,1225.00
2023-05-02T08:42:28.558Z,1217.00
2023-05-02T08:43:28.454Z,1217.00
2023-05-02T08:44:28.384Z,1226.00
2023-05-02T08:45:28.376Z,1230.00
2023-05-02T08:46:28.428Z,1176.00
2023-05-02T08:47:28.540Z,1143.00
2023-05-02T08:48:28.364Z,1110.00
2023-05-02T08:49:28.345Z,1091.00
2023-05-02T08:50:28.348Z,1035.00
2023-05-02T08:51:28.353Z,983.00
2023-05-02T08:52:28.326Z,974.00
2023-05-02T08:53:28.393Z,1012.00
2023-05-02T08:54:28.400Z,995.00
2023-05-02T08:55:28.321Z,992.00
2023-05-02T08:56:28.294Z,973.00
2023-05-02T08:57:28.336Z,1010.00
2023-05-02T08:58:28.331Z,972.00
2023-05-02T08:59:28.288Z,921.00
2023-05-02T09:00:28.276Z,960.00
2023-05-02T09:01:28.273Z,978.00
2023-05-02T09:02:28.246Z,966.00
2023-05-02T09:03:28.258Z,963.00
2023-05-02T09:04:28.278Z,985.00
2023-05-02T09:05:28.240Z,939.00
2023-05-02T09:06:28.284Z,928.00
2023-05-02T09:07:28.206Z,855.00
2023-05-02T09:08:28.228Z,822.00
2023-05-02T09:09:28.210Z,798.00
2023-05-02T09:10:28.217Z,755.00
2023-05-02T09:11:28.231Z,768.00
2023-05-02T09:12:28.180Z,752.00
2023-05-02T09:13:28.177Z,761.00
2023-05-02T09:14:28.182Z,740.00
2023-05-02T09:15:28.153Z,742.00
2023-05-02T09:16:28.148Z,730.00
2023-05-02T09:17:28.171Z,709.00
2023-05-02T09:18:28.120Z,690.00
2023-05-02T09:19:28.167Z,695.00
2023-05-02T09:20:28.118Z,662.00
2023-05-02T09:21:28.143Z,650.00
2023-05-02T09:22:28.135Z,657.00
2023-05-02T09:23:28.119Z,657.00
2023-05-02T09:24:28.102Z,665.00
2023-05-02T09:25:28.080Z,636.00
2023-05-02T09:26:29.479Z,657.00
2023-05-02T09:27:28.100Z,650.00
2023-05-02T09:28:28.064Z,624.00
2023-05-02T09:29:28.069Z,616.00
2023-05-02T09:30:28.081Z,613.00
2023-05-02T09:31:49.855Z,614.00
2023-05-02T09:32:29.094Z,614.00
2023-05-02T09:33:28.040Z,547.00
2023-05-02T09:34:28.031Z,526.00
2023-05-02T09:35:28.033Z,439.00
2023-05-02T09:36:28.013Z,418.00
2023-05-02T09:37:28.073Z,400.00
2023-05-02T09:38:28.114Z,449.00
2023-05-02T09:39:27.985Z,502.00
2023-05-02T09:40:28.140Z,510.00
2023-05-02T09:41:28.068Z,512.00
2023-05-02T09:42:27.961Z,500.00
2023-05-02T09:43:27.954Z,526.00
2023-05-02T09:44:28.043Z,503.00
2023-05-02T09:45:28.062Z,506.00
2023-05-02T09:46:28.600Z,506.00
2023-05-02T09:47:27.990Z,539.00
2023-05-02T09:48:27.943Z,537.00
2023-05-02T09:49:27.962Z,528.00
2023-05-02T09:50:28.104Z,500.00
2023-05-02T09:51:27.956Z,502.00
2023-05-02T09:52:27.914Z,505.00
2023-05-02T09:53:27.902Z,500.00
2023-05-02T09:54:27.882Z,516.00
2023-05-02T09:55:27.894Z,500.00
2023-05-02T09:56:27.883Z,500.00
2023-05-02T09:57:27.863Z,505.00
2023-05-02T09:58:27.848Z,516.00
2023-05-02T09:59:27.869Z,508.00
2023-05-02T10:00:27.914Z,515.00
2023-05-02T10:01:28.069Z,513.00
2023-05-02T10:02:28.002Z,509.00
2023-05-02T10:03:27.994Z,532.00
2023-05-02T10:04:28.002Z,522.00
2023-05-02T10:05:28.006Z,509.00
2023-05-02T10:06:28.028Z,512.00
2023-05-02T10:07:28.015Z,504.00
2023-05-02T10:08:28.103Z,518.00
2023-05-02T10:09:28.088Z,510.00
2023-05-02T10:10:28.106Z,527.00
2023-05-02T10:11:28.140Z,529.00
2023-05-02T10:12:28.127Z,534.00
2023-05-02T10:13:28.144Z,534.00
2023-05-02T10:14:29.596Z,516.00
2023-05-02T10:15:28.167Z,525.00
2023-05-02T10:16:28.334Z,535.00
2023-05-02T10:17:28.359Z,534.00
2023-05-02T10:18:28.253Z,538.00
2023-05-02T10:19:28.256Z,543.00
2023-05-02T10:20:28.852Z,530.00
2023-05-02T10:21:28.330Z,536.00
2023-05-02T10:22:28.296Z,544.00
2023-05-02T10:23:28.328Z,519.00
2023-05-02T10:24:28.378Z,503.00
2023-05-02T10:25:28.368Z,502.00
2023-05-02T10:26:28.416Z,500.00
2023-05-02T10:27:28.428Z,513.00
2023-05-02T10:28:28.587Z,507.00
2023-05-02T10:29:28.587Z,568.00
2023-05-02T10:30:28.500Z,500.00
2023-05-02T10:31:28.675Z,555.00
2023-05-02T10:32:28.684Z,576.00
2023-05-02T10:33:28.707Z,640.00
2023-05-02T10:34:28.793Z,656.00
2023-05-02T10:35:28.800Z,682.00
2023-05-02T10:36:28.786Z,857.00
2023-05-02T10:37:28.810Z,956.00
2023-05-02T10:38:28.959Z,1015.00
2023-05-02T10:39:28.938Z,1116.00
2023-05-02T10:40:28.928Z,1158.00
2023-05-02T10:41:28.879Z,1240.00
2023-05-02T10:42:28.868Z,1315.00
2023-05-02T10:43:28.881Z,1419.00
2023-05-02T10:44:28.861Z,1496.00
2023-05-02T10:45:28.948Z,1566.00
2023-05-02T10:46:28.890Z,1613.00
2023-05-02T10:47:28.929Z,1674.00
2023-05-02T10:48:28.932Z,1753.00
2023-05-02T10:49:28.908Z,1805.00
2023-05-02T10:50:28.974Z,1849.00
2023-05-02T10:51:29.059Z,1893.00
2023-05-02T10:52:29.164Z,1930.00
2023-05-02T10:53:29.236Z,1968.00
2023-05-02T10:54:29.214Z,2006.00
2023-05-02T10:55:29.323Z,2061.00
2023-05-02T10:56:29.415Z,2097.00
2023-05-02T10:57:29.413Z,2145.00
2023-05-02T10:58:29.426Z,2158.00
2023-05-02T10:59:29.480Z,2193.00
2023-05-02T11:00:29.731Z,2233.00
2023-05-02T11:01:29.723Z,2266.00
2023-05-02T11:02:29.656Z,2276.00
2023-05-02T11:03:29.644Z,2293.00
2023-05-02T11:04:29.700Z,2324.00
2023-05-02T11:05:29.721Z,2343.00
2023-05-02T11:06:29.799Z,2396.00
2023-05-02T11:07:29.768Z,2407.00
2023-05-02T11:08:29.832Z,2416.00
2023-05-02T11:09:29.906Z,2440.00
2023-05-02T11:10:29.880Z,2473.00
2023-05-02T11:11:29.937Z,2497.00
2023-05-02T11:12:29.979Z,2539.00
2023-05-02T11:13:29.966Z,2566.00
2023-05-02T11:14:30.089Z,2580.00
2023-05-02T11:15:30.039Z,2581.00
2023-05-02T11:16:30.131Z,2575.00
2023-05-02T11:17:30.119Z,2578.00
2023-05-02T11:18:30.151Z,2609.00
2023-05-02T11:19:31.514Z,2624.00
2023-05-02T11:20:30.173Z,2651.00
2023-05-02T11:21:30.200Z,2663.00
2023-05-02T11:22:30.242Z,2686.00
2023-05-02T11:23:30.274Z,2716.00
2023-05-02T11:24:30.312Z,2721.00
2023-05-02T11:25:30.926Z,2725.00
2023-05-02T11:26:30.418Z,2730.00
2023-05-02T11:27:30.602Z,2712.00
2023-05-02T11:28:30.526Z,2722.00
2023-05-02T11:29:30.590Z,2712.00
2023-05-02T11:30:30.613Z,2730.00
2023-05-02T11:31:30.698Z,2712.00
2023-05-02T11:32:30.761Z,2708.00
2023-05-02T11:33:30.771Z,2733.00
2023-05-02T11:34:30.836Z,2736.00
2023-05-02T11:35:30.903Z,2722.00
2023-05-02T11:36:30.971Z,2736.00
2023-05-02T11:37:31.029Z,2736.00
2023-05-02T11:38:31.097Z,2725.00
2023-05-02T11:39:31.142Z,2729.00
2023-05-02T11:40:31.289Z,2725.00
2023-05-02T11:41:31.259Z,2713.00
2023-05-02T11:42:31.385Z,2715.00
2023-05-02T11:43:32.366Z,2706.00
2023-05-02T11:44:31.471Z,2699.00
2023-05-02T11:45:31.500Z,2688.00
2023-05-02T11:46:31.685Z,2684.00
2023-05-02T11:47:31.660Z,2693.00
2023-05-02T11:48:31.690Z,2677.00
2023-05-02T11:49:31.744Z,2659.00
2023-05-02T11:50:31.908Z,2643.00
2023-05-02T11:51:31.905Z,2643.00
2023-05-02T11:52:32.050Z,2632.00
2023-05-02T11:53:32.064Z,2634.00
2023-05-02T11:54:32.040Z,2630.00
2023-05-02T11:55:32.125Z,2614.00
2023-05-02T11:56:32.137Z,2614.00
2023-05-02T11:57:32.184Z,2612.00
2023-05-02T11:58:32.873Z,2634.00
2023-05-02T11:59:32.264Z,2621.00
2023-05-02T12:00:32.274Z,2615.00
2023-05-02T12:01:32.327Z,2606.00
2023-05-02T12:02:32.418Z,2586.00
2023-05-02T12:03:32.912Z,2568.00
2023-05-02T12:04:32.424Z,2579.00
2023-05-02T12:05:32.477Z,2569.00
2023-05-02T12:06:32.496Z,2564.00
2023-05-02T12:07:32.533Z,2560.00
2023-05-02T12:08:32.611Z,2548.00
2023-05-02T12:09:32.649Z,2535.00
2023-05-02T12:10:32.639Z,2531.00
2023-05-02T12:11:32.667Z,2514.00
2023-05-02T12:12:32.672Z,2522.00
2023-05-02T12:13:32.719Z,2526.00
2023-05-02T12:14:32.731Z,2504.00
2023-05-02T12:15:32.811Z,2493.00
2023-05-02T12:16:32.793Z,2476.00
2023-05-02T12:17:32.809Z,2480.00
2023-05-02T12:18:33.172Z,2447.00
2023-05-02T12:19:32.827Z,2425.00
2023-05-02T12:20:32.903Z,2445.00
2023-05-02T12:21:32.814Z,2429.00